MSC Bari — A8YD3 — position and weather

sailwx.info

Track history (hours):
 
Tides and Currents Weather Stations Pressure Air Temp Water Temp Dewpoint Dewpoint Depression Visibility Wind Speed Wind Dir Waves Ship Positions

MSC Bari

Last reported at 2016-May-29 01:15 UTC. Time now 2016-May-30 22:15 UTC.
Position N 24°08' E 118°57'.

Length 366 m; draft 11.9 m.

Type: Ship (hazmat cat A). MMSI: 636092188.

Date/timePositionNaut miles runAvg speedWind from/ knotsBaromVisibWave heightAir tempDewpointWater temp
2016-May-29 01:15N 24°08' E 118°57'2915.4
2016-May-28 23:23N 23°49' E 118°33'3015.2
2016-May-28 21:23N 23°30' E 118°07'1315.2
2016-May-28 20:33N 23°23' E 117°56'23215.2
2016-May-28 05:21N 21°58' E 114°02'2010.9
2016-May-28 03:33N 22°13' E 113°49'1211.9
2016-May-28 02:31N 22°25' E 113°52'2 2.2
2016-May-28 01:24N 22°28' E 113°53'0 0.0
2016-May-27 19:30N 22°28' E 113°53'0 0.0
2016-May-27 18:30N 22°28' E 113°53'0 0.0
2016-May-27 17:30N 22°28' E 113°53'0 0.0
2016-May-27 16:29N 22°28' E 113°53'0 0.0
2016-May-27 15:23N 22°28' E 113°53'0 0.0
2016-May-27 14:29N 22°28' E 113°53'0 0.0
2016-May-27 13:23N 22°28' E 113°53'0 0.0
2016-May-27 12:30N 22°28' E 113°53'0 0.0
2016-May-27 11:30N 22°28' E 113°53'0 0.0
2016-May-27 10:23N 22°28' E 113°53'0 0.0
2016-May-27 09:24N 22°28' E 113°53'0 0.1
2016-May-27 08:33N 22°27' E 113°53'11 7.8
2016-May-27 07:09N 22°21' E 114°02'4 6.9
2016-May-27 06:34N 22°18' E 114°06'17 7.2
2016-May-27 04:16N 22°08' E 114°19'1010.8
2016-May-27 03:20N 21°59' E 114°24'  
2016-May-23 16:31N 01°15' E 104°02'1313.4
2016-May-23 15:33N 01°12' E 103°49'5 5.2
2016-May-23 14:33N 01°16' E 103°46'0 0.0
2016-May-23 13:15N 01°16' E 103°46'0 0.0
2016-May-23 12:30N 01°16' E 103°46'0 0.0
2016-May-23 11:18N 01°16' E 103°46'0 0.0
2016-May-23 10:06N 01°16' E 103°46'0 0.0
2016-May-23 07:27N 01°16' E 103°46'0 0.0
2016-May-23 06:33N 01°16' E 103°46'0 0.0
2016-May-23 03:30N 01°16' E 103°46'0 0.0
2016-May-23 02:21N 01°16' E 103°46'0 0.0
2016-May-22 23:30N 01°16' E 103°46'0 0.0
2016-May-22 22:30N 01°16' E 103°46'0 0.0
2016-May-22 21:09N 01°16' E 103°46'0 0.0
2016-May-22 20:21N 01°16' E 103°46'0 0.0
2016-May-22 19:33N 01°16' E 103°46'0 0.0
2016-May-22 18:30N 01°16' E 103°46'0 0.1
2016-May-22 17:33N 01°16' E 103°46'5 5.1
2016-May-22 16:33N 01°13' E 103°42'10 9.0
2016-May-22 15:25N 01°10' E 103°32'1011.8
2016-May-22 14:33N 01°13' E 103°22'34616.8
2016-May-21 18:00N 04°36' E 098°42'40216.7 140 / 41013.010.8 27.024.332.0
2016-May-20 18:00N 05°54' E 092°06'42417.7 240 / 171012.0 5.4 2.028.025.331.0
2016-May-19 18:00N 05°48' E 085°00'20316.9 230 / 221011.010.8 3.028.026.731.0
2016-May-19 06:00N 05°42' E 081°36'   240 / 201010.0 5.4 2.030.026.030.0
Track history (hours):
 
Tides and Currents Weather Stations Pressure Air Temp Water Temp Dewpoint Dewpoint Depression Visibility Wind Speed Wind Dir Waves Ship Positions

MSC Bari

Last reported at 2016-May-29 01:15 UTC. Time now 2016-May-30 22:15 UTC.
Position N 24°08' E 118°57'.

Length 366 m; draft 11.9 m.

Type: Ship (hazmat cat A). MMSI: 636092188.

Date/timePositionNaut miles runAvg speedWind from/ knotsBaromVisibWave heightAir tempDewpointWater temp
2016-May-29 01:15N 24°08' E 118°57'2915.4
2016-May-28 23:23N 23°49' E 118°33'3015.2
2016-May-28 21:23N 23°30' E 118°07'1315.2
2016-May-28 20:33N 23°23' E 117°56'23215.2
2016-May-28 05:21N 21°58' E 114°02'2010.9
2016-May-28 03:33N 22°13' E 113°49'1211.9
2016-May-28 02:31N 22°25' E 113°52'2 2.2
2016-May-28 01:24N 22°28' E 113°53'0 0.0
2016-May-27 19:30N 22°28' E 113°53'0 0.0
2016-May-27 18:30N 22°28' E 113°53'0 0.0
2016-May-27 17:30N 22°28' E 113°53'0 0.0
2016-May-27 16:29N 22°28' E 113°53'0 0.0
2016-May-27 15:23N 22°28' E 113°53'0 0.0
2016-May-27 14:29N 22°28' E 113°53'0 0.0
2016-May-27 13:23N 22°28' E 113°53'0 0.0
2016-May-27 12:30N 22°28' E 113°53'0 0.0
2016-May-27 11:30N 22°28' E 113°53'0 0.0
2016-May-27 10:23N 22°28' E 113°53'0 0.0
2016-May-27 09:24N 22°28' E 113°53'0 0.1
2016-May-27 08:33N 22°27' E 113°53'11 7.8
2016-May-27 07:09N 22°21' E 114°02'4 6.9
2016-May-27 06:34N 22°18' E 114°06'17 7.2
2016-May-27 04:16N 22°08' E 114°19'1010.8
2016-May-27 03:20N 21°59' E 114°24'  
2016-May-23 16:31N 01°15' E 104°02'1313.4
2016-May-23 15:33N 01°12' E 103°49'5 5.2
2016-May-23 14:33N 01°16' E 103°46'0 0.0
2016-May-23 13:15N 01°16' E 103°46'0 0.0
2016-May-23 12:30N 01°16' E 103°46'0 0.0
2016-May-23 11:18N 01°16' E 103°46'0 0.0
2016-May-23 10:06N 01°16' E 103°46'0 0.0
2016-May-23 07:27N 01°16' E 103°46'0 0.0
2016-May-23 06:33N 01°16' E 103°46'0 0.0
2016-May-23 03:30N 01°16' E 103°46'0 0.0
2016-May-23 02:21N 01°16' E 103°46'0 0.0
2016-May-22 23:30N 01°16' E 103°46'0 0.0
2016-May-22 22:30N 01°16' E 103°46'0 0.0
2016-May-22 21:09N 01°16' E 103°46'0 0.0
2016-May-22 20:21N 01°16' E 103°46'0 0.0
2016-May-22 19:33N 01°16' E 103°46'0 0.0
2016-May-22 18:30N 01°16' E 103°46'0 0.1
2016-May-22 17:33N 01°16' E 103°46'5 5.1
2016-May-22 16:33N 01°13' E 103°42'10 9.0
2016-May-22 15:25N 01°10' E 103°32'1011.8
2016-May-22 14:33N 01°13' E 103°22'34616.8
2016-May-21 18:00N 04°36' E 098°42'40216.7 140 / 41013.010.8 27.024.332.0
2016-May-20 18:00N 05°54' E 092°06'42417.7 240 / 171012.0 5.4 2.028.025.331.0
2016-May-19 18:00N 05°48' E 085°00'20316.9 230 / 221011.010.8 3.028.026.731.0
2016-May-19 06:00N 05°42' E 081°36'   240 / 201010.0 5.4 2.030.026.030.0

Dump ship's entire track history